Sanderson, Florida
Current Conditions -  °F | °C
As of 5:15 AM on Wednesday 26 Nov 2014 (Local Time) from KLCQ Reporting Station
Moderate Rain Moderate Rain  
Wind Chill: 43°   Ceiling: 800
Heat Index: 46°   Visibility: 7mi
Dew Point: 46°   Wind: 7mph
Humidity: 100%   Direction: 350°N
Pressure: 30.01"   Gusts: NA
Location:  30.25°N, 82.27°W
Report Text: KLCQ 261015Z AUTO 35006KT 7SM RA BKN008 BKN011 OVC041 08/08 A3001 RMK AO2 P0002
Loading
Personal Weather Stations






























Interactive Weather Map New forecast layout! Learn more

10-Day Weather Forecast

Advertisements
Track Severe Weather on mobile